Sunshine Summit (212) Station Data

Red Flag Warning: No
Fire Weather Zone: 258
SDGE Region: Ramona
Lat/Lon: 33.344/-116.732

Observations

Time Wind Speed/Gust Temp(F) RH Fuel Moist Fuel Temp(F) Dewpt(F) Tmax(F) Tmin(F) Accum Precip 10-min Precip SL Press(mb)
6/22 4:50am 176 1 G 2 68° 23% - - 29° 75.9° 67.1° - - -
6/22 4:40am 174 0 G 1 69° 22% - - 28° 75.9° 68.3° - - -
6/22 4:30am 175 1 G 1 69° 22% - - 28° 75.9° 68.7° - - -
6/22 4:20am 190 1 G 2 69° 22% - - 28° 75.9° 69° - - -
6/22 4:10am 223 0 G 1 69° 21% - - 27° 75.9° 69° - - -
6/22 4:00am 187 1 G 2 69° 20% - - 27° 75.9° 69.1° - - -
6/22 3:50am 163 0 G 1 70° 19% - - 26° 75.9° 69.3° - - -
6/22 3:40am 337 1 G 2 70° 18% - - 25° 75.9° 69.9° - - -
6/22 3:30am 321 1 G 2 71° 18% - - 26° 75.9° 69.9° - - -
6/22 3:20am 309 2 G 3 72° 16% - - 24° 75.9° 69.9° - - -
6/22 3:10am 311 2 G 2 72° 18% - - 27° 75.9° 69.9° - - -
6/22 3:00am 331 1 G 2 71° 21% - - 29° 75.9° 69.9° - - -
6/22 2:50am 349 2 G 3 70° 21% - - 29° 75.9° 69.9° - - -
6/22 2:40am 338 1 G 2 71° 21% - - 29° 75.9° 70.4° - - -
6/22 2:30am 312 1 G 2 71° 22% - - 30° 75.9° 70.4° - - -
6/22 2:20am 336 0 G 1 71° 22% - - 30° 75.9° 70.5° - - -
6/22 2:10am 352 1 G 2 72° 20% - - 28° 75.9° 70.7° - - -
6/22 2:00am 273 1 G 1 73° 19% - - 28° 75.9° 72.3° - - -
6/22 1:50am 251 1 G 3 73° 17% - - 26° 75.9° 72.3° - - -
6/22 1:40am 298 3 G 4 74° 17% - - 26° 75.9° 72.3° - - -
6/22 1:30am 303 4 G 4 74° 16% - - 26° 75.9° 72.3° - - -
6/22 1:20am 303 4 G 6 75° 16% - - 25° 75.9° 72.3° - - -
6/22 1:10am 309 5 G 6 74° 16% - - 26° 75.9° 72.3° - - -
6/22 1:00am 310 4 G 5 74° 16% - - 26° 75.9° 72.3° - - -
6/22 12:50am 315 4 G 6 73° 19% - - 28° 75.9° 72.3° - - -
6/22 12:40am 295 4 G 5 75° 19% - - 30° 75.9° 73.7° - - -
6/22 12:30am 277 2 G 3 75° 20% - - 31° 75.9° 74.3° - - -
6/22 12:20am 279 1 G 3 75° 21% - - 32° 75.2° 74.3° - - -
6/22 12:10am 247 0 G 1 75° 21% - - 32° 75.1° 74.6° - - -
6/22 12:00am 249 0 G 1 75° 20% - - 31° 100.9° 63.7° - - -
6/21 11:50pm 300 2 G 4 75° 18% - - 29° 100.9° 63.7° - - -
6/21 11:40pm 310 3 G 4 74° 19% - - 29° 100.9° 63.7° - - -
6/21 11:30pm 311 4 G 5 74° 20% - - 30° 100.9° 63.7° - - -
6/21 11:20pm 317 4 G 5 73° 21% - - 31° 100.9° 63.7° - - -
6/21 11:10pm 308 5 G 5 73° 22% - - 32° 100.9° 63.7° - - -
6/21 11:00pm 300 5 G 6 74° 21% - - 32° 100.9° 63.7° - - -
6/21 10:50pm 302 6 G 7 77° 18% - - 30° 100.9° 63.7° - - -
6/21 10:40pm 297 7 G 8 77° 18% - - 30° 100.9° 63.7° - - -
6/21 10:30pm 295 6 G 7 77° 19% - - 31° 100.9° 63.7° - - -
6/21 10:20pm 298 6 G 7 76° 19% - - 32° 100.9° 63.7° - - -
6/21 10:10pm 302 6 G 7 76° 20% - - 32° 100.9° 63.7° - - -
6/21 10:00pm 293 6 G 7 76° 20% - - 32° 100.9° 63.7° - - -
6/21 9:50pm 300 6 G 7 77° 20% - - 32° 100.9° 63.7° - - -
6/21 9:40pm 308 5 G 6 77° 20% - - 33° 100.9° 63.7° - - -
6/21 9:30pm 311 5 G 6 77° 20% - - 33° 100.9° 63.7° - - -
6/21 9:20pm 303 6 G 7 78° 20% - - 34° 100.9° 63.7° - - -
6/21 9:10pm 305 5 G 6 78° 20% - - 34° 100.9° 63.7° - - -
6/21 9:00pm 300 5 G 6 78° 21% - - 35° 100.9° 63.7° - - -
6/21 8:50pm 297 5 G 6 79° 21% - - 35° 100.9° 63.7° - - -
6/21 8:40pm 289 5 G 6 80° 20% - - 35° 100.9° 63.7° - - -
6/21 8:30pm 300 4 G 5 79° 21% - - 36° 100.9° 63.7° - - -
6/21 8:20pm 324 3 G 5 79° 22% - - 37° 100.9° 63.7° - - -
6/21 8:10pm 308 5 G 7 80° 22% - - 37° 100.9° 63.7° - - -
6/21 8:00pm 291 5 G 7 81° 21% - - 38° 100.9° 63.7° - - -
6/21 7:50pm 297 6 G 7 83° 20% - - 38° 100.9° 63.7° - - -
6/21 7:40pm 292 5 G 7 84° 20% - - 38° 100.9° 63.7° - - -
6/21 7:30pm 286 4 G 7 85° 19% - - 39° 100.9° 63.7° - - -
6/21 7:20pm 288 5 G 7 87° 17% - - 37° 100.9° 63.7° - - -
6/21 7:10pm 306 6 G 9 88° 15% - - 35° 100.9° 63.7° - - -
6/21 7:00pm 307 6 G 10 89° 14% - - 35° 100.9° 63.7° - - -
6/21 6:50pm 315 6 G 11 90° 14% - - 35° 100.9° 63.7° - - -
6/21 6:40pm 311 7 G 11 90° 14% - - 35° 100.9° 63.7° - - -
6/21 6:30pm 317 6 G 11 91° 14% - - 34° 100.9° 63.7° - - -
6/21 6:20pm 309 8 G 13 91° 14% - - 35° 100.9° 63.7° - - -
6/21 6:10pm 307 8 G 13 92° 13% - - 35° 100.9° 63.7° - - -
6/21 6:00pm 310 7 G 13 93° 13% - - 35° 100.9° 63.7° - - -
6/21 5:50pm 311 7 G 13 94° 13% - - 35° 100.9° 63.7° - - -
6/21 5:40pm 306 7 G 11 94° 13% - - 36° 100.9° 63.7° - - -
6/21 5:30pm 299 8 G 13 95° 13% - - 36° 100.9° 63.7° - - -
6/21 5:20pm 310 7 G 11 96° 12% - - 35° 100.9° 63.7° - - -
6/21 5:10pm 308 6 G 13 97° 12% - - 36° 100.9° 63.7° - - -
6/21 5:00pm 297 6 G 12 97° 12% - - 35° 100.9° 63.7° - - -
6/21 4:50pm 295 7 G 12 97° 11% - - 35° 100.9° 63.7° - - -
6/21 4:40pm 276 8 G 15 97° 11% - - 35° 100.9° 63.7° - - -
6/21 4:30pm 232 9 G 17 97° 12% - - 35° 100.9° 63.7° - - -
6/21 4:20pm 213 10 G 17 97° 12% - - 37° 100.9° 63.7° - - -
6/21 4:10pm 223 8 G 14 98° 12% - - 36° 100.9° 63.7° - - -
6/21 4:00pm 241 8 G 16 98° 12% - - 37° 100.9° 63.7° - - -
6/21 3:50pm 226 8 G 15 98° 12% - - 36° 100.9° 63.7° - - -
6/21 3:40pm 211 9 G 17 99° 11% - - 35° 100.9° 63.7° - - -
6/21 3:30pm 207 9 G 16 98° 11% - - 35° 100.9° 63.7° - - -
6/21 3:20pm 224 9 G 17 99° 11% - - 36° 100.9° 63.7° - - -
6/21 3:10pm 209 10 G 18 98° 10% - - 34° 100.9° 63.7° - - -
6/21 3:00pm 210 9 G 17 99° 10% - - 33° 100.9° 63.7° - - -
6/21 2:50pm 206 9 G 15 99° 10% - - 33° 100.9° 63.7° - - -
6/21 2:40pm 202 8 G 15 99° 9% - - 32° 100.9° 63.7° - - -
6/21 2:30pm 201 10 G 20 99° 10% - - 34° 100.9° 63.7° - - -
6/21 2:20pm 207 10 G 18 99° 10% - - 33° 100.9° 63.7° - - -
6/21 2:10pm 208 10 G 17 99° 10% - - 33° 100.9° 63.7° - - -
6/21 2:00pm 224 9 G 16 99° 9% - - 32° 100.9° 63.7° - - -
6/21 1:50pm 221 9 G 15 99° 9% - - 31° 100.9° 63.7° - - -
6/21 1:40pm 226 11 G 17 99° 9% - - 29° 100.9° 63.7° - - -
6/21 1:30pm 211 11 G 17 99° 9% - - 30° 100.9° 63.7° - - -
6/21 1:20pm 220 10 G 17 99° 9% - - 30° 100.9° 63.7° - - -
6/21 1:10pm 229 10 G 18 99° 9% - - 30° 100.9° 63.7° - - -
6/21 1:00pm 227 12 G 19 99° 9% - - 30° 100.9° 63.7° - - -
6/21 12:50pm 240 9 G 17 100° 8% - - 28° 100.9° 63.7° - - -
6/21 12:40pm 230 6 G 15 100° 8% - - 29° 100.8° 63.7° - - -
6/21 12:30pm 289 5 G 10 99° 8% - - 27° 100.2° 63.7° - - -
6/21 12:20pm 185 6 G 12 100° 7% - - 26° 100.2° 63.7° - - -
6/21 12:10pm 140 5 G 12 99° 7% - - 25° 99.4° 63.7° - - -
6/21 12:00pm 246 2 G 8 99° 8% - - 27° 99.3° 63.7° - - -
6/21 11:50am 142 4 G 10 98° 8% - - 27° 99.3° 63.7° - - -
6/21 11:40am 168 5 G 11 99° 9% - - 29° 99.3° 63.7° - - -
6/21 11:30am 127 5 G 10 97° 9% - - 30° 98.3° 63.7° - - -
6/21 11:20am 140 4 G 9 97° 10% - - 30° 98.3° 63.7° - - -
6/21 11:10am 355 2 G 7 98° 9% - - 30° 98.3° 63.7° - - -
6/21 11:00am 81 2 G 5 97° 9% - - 29° 97.4° 63.7° - - -
6/21 10:50am 332 2 G 6 97° 9% - - 28° 97.2° 63.7° - - -
6/21 10:40am 283 3 G 7 96° 9% - - 28° 96.2° 63.7° - - -
6/21 10:30am 334 4 G 7 96° 9% - - 28° 96.2° 63.7° - - -
6/21 10:20am 305 2 G 6 94° 9% - - 28° 95.2° 63.7° - - -
6/21 10:10am 301 3 G 8 94° 9% - - 27° 94.5° 63.7° - - -
6/21 10:00am 330 3 G 8 94° 9% - - 27° 94.5° 63.7° - - -
6/21 9:50am 324 4 G 8 93° 10% - - 27° 93.2° 63.7° - - -
6/21 9:40am 327 4 G 7 92° 10% - - 27° 92.4° 63.7° - - -
6/21 9:30am 311 5 G 9 92° 10% - - 27° 92° 63.7° - - -
6/21 9:20am 324 5 G 8 92° 10% - - 27° 91.9° 63.7° - - -
6/21 9:10am 316 5 G 9 90° 11% - - 28° 91.2° 63.7° - - -
6/21 9:00am 315 5 G 10 90° 12% - - 30° 90.2° 63.7° - - -
6/21 8:50am 324 3 G 6 89° 14% - - 33° 90° 63.7° - - -
6/21 8:40am 91 1 G 3 86° 21% - - 41° 87° 63.7° - - -
6/21 8:30am 95 1 G 3 84° 22% - - 41° 84.4° 63.7° - - -
6/21 8:20am 109 1 G 3 82° 22% - - 39° 82.8° 63.7° - - -
6/21 8:10am 112 2 G 3 81° 24% - - 40° 81.1° 63.7° - - -
6/21 8:00am 126 1 G 2 80° 24% - - 40° 80.5° 63.7° - - -
6/21 7:50am 121 1 G 2 79° 25% - - 41° 79.6° 63.7° - - -
6/21 7:40am 88 1 G 2 78° 26% - - 40° 78.6° 63.7° - - -
6/21 7:30am 107 1 G 1 77° 27% - - 41° 77.5° 63.7° - - -
6/21 7:20am 68 1 G 2 76° 29% - - 41° 76.7° 63.7° - - -
6/21 7:10am 109 0 G 1 75° 29% - - 41° 75.9° 63.7° - - -
6/21 7:00am 76 0 G 1 74° 32% - - 42° 75.9° 63.7° - - -
6/21 6:50am 334 0 G 1 72° 35% - - 42° 75.9° 63.7° - - -
6/21 6:40am 17 0 G 1 71° 34% - - 41° 75.9° 63.7° - - -
6/21 6:30am 150 1 G 2 69° 34% - - 39° 75.9° 63.7° - - -
6/21 6:20am 129 2 G 3 67° 37% - - 39° 75.9° 63.7° - - -
6/21 6:10am 139 2 G 4 64° 40% - - 39° 75.9° 63.7° - - -
6/21 6:00am 247 4 G 6 71° 25% - - 33° 75.9° 65.6° - - -
6/21 5:50am 299 6 G 6 72° 22% - - 31° 75.9° 65.6° - - -
6/21 5:40am 297 5 G 6 72° 22% - - 31° 75.9° 65.6° - - -
6/21 5:30am 292 5 G 6 72° 23% - - 32° 75.9° 65.6° - - -
6/21 5:20am 291 6 G 7 71° 25% - - 33° 75.9° 65.6° - - -
6/21 5:10am 287 4 G 6 71° 28% - - 36° 75.9° 65.6° - - -
6/21 5:00am 264 1 G 2 69° 37% - - 41° 75.9° 65.6° - - -
6/21 4:50am 190 1 G 2 67° 42% - - 43° 75.9° 65.6° - - -
6/21 4:40am 131 2 G 5 66° 44% - - 43° 75.9° 65.6° - - -
6/21 4:30am 124 3 G 6 70° 32% - - 38° 75.9° 66.8° - - -
6/21 4:20am 319 6 G 9 74° 23% - - 34° 75.9° 72.1° - - -
6/21 4:10am 312 7 G 9 73° 25% - - 35° 75.9° 72.1° - - -
6/21 4:00am 309 6 G 8 73° 26% - - 36° 75.9° 72.1° - - -
6/21 3:50am 306 6 G 8 73° 29% - - 38° 75.9° 72.1° - - -
6/21 3:40am 299 6 G 7 72° 30% - - 39° 75.9° 72.1° - - -
6/21 3:30am 293 5 G 6 73° 30% - - 40° 75.9° 72.3° - - -
6/21 3:20am 290 5 G 6 73° 30% - - 39° 75.9° 72.5° - - -
6/21 3:10am 286 5 G 6 74° 30% - - 40° 75.9° 72.6° - - -
6/21 3:00am 285 4 G 4 74° 30% - - 41° 75.9° 72.6° - - -
6/21 2:50am 282 4 G 4 73° 31% - - 41° 75.9° 72.6° - - -
6/21 2:40am 300 4 G 5 73° 32% - - 42° 75.9° 72.6° - - -
6/21 2:30am 297 5 G 5 73° 33% - - 42° 75.9° 72.6° - - -
6/21 2:20am 302 5 G 6 74° 32% - - 42° 75.9° 72.6° - - -
6/21 2:10am 297 6 G 7 74° 31% - - 41° 75.9° 72.6° - - -
6/21 2:00am 298 6 G 7 74° 31% - - 41° 75.9° 72.6° - - -
6/21 1:50am 302 6 G 7 74° 31% - - 41° 75.9° 72.6° - - -
6/21 1:40am 306 5 G 6 73° 33% - - 42° 75.9° 72.6° - - -
6/21 1:30am 307 5 G 5 74° 33% - - 43° 75.9° 73.5° - - -
6/21 1:20am 294 6 G 7 75° 33% - - 44° 75.9° 73.6° - - -
6/21 1:10am 292 5 G 6 74° 34% - - 45° 75.5° 73.6° - - -
6/21 1:00am 305 4 G 5 74° 35% - - 45° 75.5° 73.6° - - -
6/21 12:50am 315 4 G 5 74° 36% - - 45° 75.5° 73.6° - - -
6/21 12:40am 309 4 G 5 75° 35% - - 45° 75.5° 74.1° - - -
6/21 12:30am 305 5 G 6 75° 34% - - 45° 75.5° 74.4° - - -
6/21 12:20am 313 4 G 5 75° 35% - - 45° 75° 74.4° - - -
6/21 12:10am 312 4 G 5 75° 36% - - 46° 75° 74.5° - - -
6/21 12:00am 311 4 G 6 75° 36% - - 46° 100.6° 68° - - -
6/20 11:50pm 306 5 G 6 75° 36% - - 46° 100.6° 68° - - -
6/20 11:40pm 305 5 G 6 75° 36% - - 46° 100.6° 68° - - -
6/20 11:30pm 303 5 G 6 76° 36% - - 47° 100.6° 68° - - -
6/20 11:20pm 304 6 G 7 76° 36% - - 47° 100.6° 68° - - -
6/20 11:10pm 301 5 G 7 75° 39% - - 48° 100.6° 68° - - -
6/20 11:00pm 305 6 G 7 75° 39% - - 48° 100.6° 68° - - -
6/20 10:50pm 299 6 G 7 76° 38% - - 48° 100.6° 68° - - -
6/20 10:40pm 303 5 G 6 76° 38% - - 48° 100.6° 68° - - -
6/20 10:30pm 304 5 G 6 76° 37% - - 48° 100.6° 68° - - -
6/20 10:20pm 291 5 G 6 77° 36% - - 48° 100.6° 68° - - -
6/20 10:10pm 287 5 G 6 77° 36% - - 48° 100.6° 68° - - -
6/20 10:00pm 293 5 G 6 78° 35% - - 48° 100.6° 68° - - -
6/20 9:50pm 300 5 G 6 78° 34% - - 47° 100.6° 68° - - -
6/20 9:40pm 293 5 G 6 78° 34% - - 47° 100.6° 68° - - -
6/20 9:30pm 302 5 G 6 78° 34% - - 47° 100.6° 68° - - -
6/20 9:20pm 304 5 G 7 79° 32% - - 47° 100.6° 68° - - -
6/20 9:10pm 296 6 G 8 79° 31% - - 46° 100.6° 68° - - -
6/20 9:00pm 296 6 G 8 80° 31% - - 46° 100.6° 68° - - -
6/20 8:50pm 300 6 G 9 81° 30% - - 46° 100.6° 68° - - -
6/20 8:40pm 311 5 G 8 81° 29% - - 46° 100.6° 68° - - -
6/20 8:30pm 310 6 G 8 82° 28% - - 46° 100.6° 68° - - -
6/20 8:20pm 312 6 G 8 83° 27% - - 46° 100.6° 68° - - -
6/20 8:10pm 302 6 G 9 84° 26% - - 45° 100.6° 68° - - -
6/20 8:00pm 304 6 G 9 85° 25% - - 45° 100.6° 68° - - -
6/20 7:50pm 302 7 G 11 87° 23% - - 44° 100.6° 68° - - -
6/20 7:40pm 299 8 G 13 88° 22% - - 44° 100.6° 68° - - -
6/20 7:30pm 301 9 G 14 89° 21% - - 45° 100.6° 68° - - -
6/20 7:20pm 303 8 G 13 91° 21% - - 45° 100.6° 68° - - -
6/20 7:10pm 308 8 G 16 92° 20% - - 45° 100.6° 68° - - -
6/20 7:00pm 314 8 G 15 93° 19% - - 45° 100.6° 68° - - -
6/20 6:50pm 316 8 G 14 94° 19% - - 46° 100.6° 68° - - -
6/20 6:40pm 328 8 G 15 94° 19% - - 45° 100.6° 68° - - -
6/20 6:30pm 323 9 G 19 95° 17% - - 43° 100.6° 68° - - -
6/20 6:20pm 331 8 G 15 95° 14% - - 39° 100.6° 68° - - -
6/20 6:10pm 316 10 G 19 96° 13% - - 38° 100.6° 68° - - -
6/20 6:00pm 335 8 G 17 97° 11% - - 34° 100.6° 68° - - -